createdAt,value
2022-10-23T00:01:33.264Z,13.32
2022-10-23T00:04:17.628Z,13.36
2022-10-23T00:06:45.755Z,13.34
2022-10-23T00:09:16.762Z,13.36
2022-10-23T00:11:47.409Z,13.37
2022-10-23T00:14:16.331Z,13.35
2022-10-23T00:16:43.415Z,13.22
2022-10-23T00:19:10.988Z,13.13
2022-10-23T00:21:39.285Z,13.06
2022-10-23T00:24:06.954Z,13.15
2022-10-23T00:26:34.193Z,13.06
2022-10-23T00:29:01.281Z,13.13
2022-10-23T00:31:28.353Z,13.17
2022-10-23T00:33:55.461Z,13.28
2022-10-23T00:36:22.643Z,13.14
2022-10-23T00:38:50.906Z,13.15
2022-10-23T00:41:22.664Z,13.17
2022-10-23T00:44:00.729Z,13.12
2022-10-23T00:46:28.116Z,13.06
2022-10-23T00:48:55.823Z,13.21
2022-10-23T00:51:24.576Z,13.05
2022-10-23T00:54:06.482Z,13.14
2022-10-23T00:56:45.929Z,13.18
2022-10-23T00:59:13.260Z,13.20
2022-10-23T01:01:40.579Z,13.14
2022-10-23T01:04:08.538Z,13.05
2022-10-23T01:06:51.797Z,13.03
2022-10-23T01:09:27.151Z,13.03
2022-10-23T01:11:59.408Z,13.18
2022-10-23T01:14:37.575Z,13.08
2022-10-23T01:17:23.576Z,13.01
2022-10-23T01:20:14.195Z,13.02
2022-10-23T01:22:44.413Z,13.00
2022-10-23T01:25:34.222Z,12.96
2022-10-23T01:28:06.173Z,13.07
2022-10-23T01:30:34.079Z,13.08
2022-10-23T01:33:08.233Z,13.07
2022-10-23T01:35:49.085Z,12.98
2022-10-23T01:38:37.919Z,12.94
2022-10-23T01:41:23.307Z,13.02
2022-10-23T01:43:59.963Z,13.04
2022-10-23T01:46:32.209Z,13.05
2022-10-23T01:49:01.019Z,12.91
2022-10-23T01:51:30.748Z,13.00
2022-10-23T01:54:07.735Z,13.02
2022-10-23T01:56:39.302Z,13.02
2022-10-23T01:59:13.140Z,12.72
2022-10-23T02:01:45.458Z,12.83
2022-10-23T02:04:19.467Z,12.67
2022-10-23T02:06:46.646Z,12.85
2022-10-23T02:09:13.877Z,12.73
2022-10-23T02:11:52.485Z,12.81
2022-10-23T02:14:51.324Z,12.74
2022-10-23T02:17:32.202Z,12.71
2022-10-23T02:20:17.167Z,12.79
2022-10-23T02:22:55.568Z,12.84
2022-10-23T02:25:38.649Z,12.80
2022-10-23T02:28:10.539Z,12.74
2022-10-23T02:30:47.083Z,12.76
2022-10-23T02:33:15.013Z,12.97
2022-10-23T02:35:42.572Z,13.03
2022-10-23T02:38:40.391Z,13.06
2022-10-23T02:41:18.074Z,13.06
2022-10-23T02:44:02.422Z,13.12
2022-10-23T02:46:44.667Z,13.16
2022-10-23T02:49:18.923Z,13.11
2022-10-23T02:51:58.250Z,13.06
2022-10-23T02:55:13.987Z,13.10
2022-10-23T02:58:01.771Z,13.18
2022-10-23T03:00:32.703Z,13.22
2022-10-23T03:03:15.071Z,13.30
2022-10-23T03:05:44.894Z,13.26
2022-10-23T03:08:15.230Z,13.33
2022-10-23T03:10:43.031Z,13.14
2022-10-23T03:13:11.498Z,13.08
2022-10-23T03:15:44.006Z,12.99
2022-10-23T03:18:15.312Z,12.96
2022-10-23T03:20:47.352Z,12.99
2022-10-23T03:23:15.157Z,12.78
2022-10-23T03:25:43.119Z,12.75
2022-10-23T03:28:11.229Z,12.49
2022-10-23T03:30:38.768Z,12.52
2022-10-23T03:33:05.893Z,12.58
2022-10-23T03:35:35.671Z,12.56
2022-10-23T03:38:03.381Z,12.76
2022-10-23T03:40:30.621Z,12.83
2022-10-23T03:42:57.869Z,12.79
2022-10-23T03:45:25.009Z,12.89
2022-10-23T03:47:52.194Z,13.21
2022-10-23T03:50:20.042Z,13.42
2022-10-23T03:52:47.866Z,13.18
2022-10-23T03:55:15.049Z,13.13
2022-10-23T03:57:42.418Z,12.99
2022-10-23T04:00:10.575Z,12.99
2022-10-23T04:02:44.318Z,12.91
2022-10-23T04:05:12.123Z,12.91
2022-10-23T04:07:41.354Z,12.89
2022-10-23T04:10:08.910Z,12.88
2022-10-23T04:12:36.121Z,12.88
2022-10-23T04:15:03.570Z,12.83
2022-10-23T04:17:30.622Z,12.76
2022-10-23T04:19:57.780Z,12.76
2022-10-23T04:22:27.607Z,12.78
2022-10-23T04:24:56.147Z,12.75
2022-10-23T04:27:23.438Z,12.84
2022-10-23T04:29:53.193Z,12.82
2022-10-23T04:32:22.661Z,12.87
2022-10-23T04:34:49.794Z,12.91
2022-10-23T04:37:16.893Z,12.89
2022-10-23T04:39:44.864Z,12.88
2022-10-23T04:42:14.175Z,12.89
2022-10-23T04:44:41.263Z,12.87
2022-10-23T04:47:08.524Z,12.91
2022-10-23T04:49:44.471Z,12.84
2022-10-23T04:52:20.375Z,12.97
2022-10-23T04:55:04.871Z,12.95
2022-10-23T04:57:41.355Z,12.83
2022-10-23T05:00:12.768Z,12.88
2022-10-23T05:02:50.941Z,12.86
2022-10-23T05:05:18.422Z,12.89
2022-10-23T05:07:58.606Z,12.91
2022-10-23T05:10:57.882Z,12.92
2022-10-23T05:13:25.057Z,12.96
2022-10-23T05:15:53.284Z,12.88
2022-10-23T05:18:29.566Z,13.07
2022-10-23T05:21:06.430Z,12.97
2022-10-23T05:23:35.063Z,12.74
2022-10-23T05:26:03.384Z,12.70
2022-10-23T05:28:31.948Z,12.52
2022-10-23T05:31:02.717Z,12.58
2022-10-23T05:33:30.795Z,12.48
2022-10-23T05:35:58.721Z,12.39
2022-10-23T05:38:27.778Z,12.51
2022-10-23T05:40:55.301Z,12.58
2022-10-23T05:43:23.790Z,12.43
2022-10-23T05:45:58.387Z,12.46
2022-10-23T05:48:50.111Z,12.36
2022-10-23T05:51:40.348Z,12.44
2022-10-23T05:54:27.677Z,12.48
2022-10-23T05:57:22.748Z,12.36
2022-10-23T05:59:51.989Z,12.37
2022-10-23T06:02:23.852Z,12.39
2022-10-23T06:04:56.947Z,12.38
2022-10-23T06:07:36.237Z,12.31
2022-10-23T06:10:06.567Z,12.22
2022-10-23T06:12:39.363Z,12.23
2022-10-23T06:15:07.231Z,12.20
2022-10-23T06:17:54.083Z,12.25
2022-10-23T06:20:25.278Z,12.28
2022-10-23T06:23:05.072Z,12.35
2022-10-23T06:25:54.561Z,12.09
2022-10-23T06:28:27.426Z,12.12
2022-10-23T06:30:54.794Z,12.44
2022-10-23T06:33:21.900Z,12.76
2022-10-23T06:35:49.772Z,12.83
2022-10-23T06:38:17.474Z,12.99
2022-10-23T06:40:56.643Z,13.04
2022-10-23T06:43:33.533Z,13.14
2022-10-23T06:46:22.723Z,13.19
2022-10-23T06:49:16.402Z,13.36
2022-10-23T06:51:48.711Z,13.37
2022-10-23T06:54:17.528Z,13.43
2022-10-23T06:56:51.173Z,13.53
2022-10-23T06:59:22.527Z,13.60
2022-10-23T07:01:51.887Z,13.65
2022-10-23T07:04:19.128Z,13.85
2022-10-23T07:06:46.304Z,13.95
2022-10-23T07:09:13.485Z,13.99
2022-10-23T07:12:00.783Z,13.95
2022-10-23T07:14:36.092Z,13.95
2022-10-23T07:17:03.718Z,13.88
2022-10-23T07:19:30.917Z,13.91
2022-10-23T07:22:01.139Z,13.87
2022-10-23T07:24:54.355Z,13.86
2022-10-23T07:27:26.873Z,13.90
2022-10-23T07:29:56.734Z,13.96
2022-10-23T07:32:24.650Z,14.02
2022-10-23T07:35:12.290Z,14.05
2022-10-23T07:37:43.658Z,14.06
2022-10-23T07:40:11.573Z,14.11
2022-10-23T07:42:43.967Z,14.04
2022-10-23T07:45:12.463Z,14.09
2022-10-23T07:47:42.649Z,14.27
2022-10-23T07:50:13.073Z,14.26
2022-10-23T07:52:40.239Z,14.25
2022-10-23T07:55:12.247Z,14.22
2022-10-23T07:57:46.407Z,14.36
2022-10-23T08:01:02.745Z,14.41
2022-10-23T08:03:35.668Z,14.41
2022-10-23T08:06:03.709Z,14.43
2022-10-23T08:08:31.545Z,14.42
2022-10-23T08:11:03.344Z,14.28
2022-10-23T08:13:39.356Z,14.39
2022-10-23T08:16:07.376Z,14.33
2022-10-23T08:19:05.025Z,14.32
2022-10-23T08:21:32.612Z,14.42
2022-10-23T08:24:01.197Z,14.40
2022-10-23T08:26:29.447Z,14.43
2022-10-23T08:28:59.399Z,14.39
2022-10-23T08:31:27.375Z,14.44
2022-10-23T08:34:15.489Z,14.31
2022-10-23T08:36:44.903Z,14.39
2022-10-23T08:39:12.365Z,14.44
2022-10-23T08:41:50.554Z,14.63
2022-10-23T08:44:32.411Z,14.91
2022-10-23T08:47:02.119Z,14.94
2022-10-23T08:49:53.438Z,14.93
2022-10-23T08:52:35.162Z,14.91
2022-10-23T08:55:17.341Z,14.87
2022-10-23T08:57:58.174Z,14.94
2022-10-23T09:00:25.271Z,14.99
2022-10-23T09:02:53.962Z,15.15
2022-10-23T09:05:27.654Z,15.34
2022-10-23T09:08:19.721Z,15.72
2022-10-23T09:11:06.495Z,15.97
2022-10-23T09:13:55.228Z,15.97
2022-10-23T09:16:40.729Z,16.03
2022-10-23T09:19:22.213Z,16.09
2022-10-23T09:21:50.026Z,16.10
2022-10-23T09:24:19.855Z,16.16
2022-10-23T09:26:49.559Z,16.22
2022-10-23T09:29:25.045Z,16.26
2022-10-23T09:32:00.999Z,16.34
2022-10-23T09:34:30.578Z,16.55
2022-10-23T09:37:21.365Z,16.51
2022-10-23T09:39:48.853Z,16.51
2022-10-23T09:42:24.110Z,16.58
2022-10-23T09:44:53.709Z,16.64
2022-10-23T09:47:24.347Z,16.71
2022-10-23T09:49:53.833Z,16.75
2022-10-23T09:52:34.833Z,16.73
2022-10-23T09:55:15.497Z,16.72
2022-10-23T09:57:44.422Z,16.76
2022-10-23T10:00:17.012Z,16.82
2022-10-23T10:02:57.325Z,16.72
2022-10-23T10:05:38.273Z,16.68
2022-10-23T10:08:32.342Z,16.81
2022-10-23T10:11:13.121Z,16.90
2022-10-23T10:13:55.735Z,17.06
2022-10-23T10:16:32.497Z,16.97
2022-10-23T10:19:31.287Z,16.86
2022-10-23T10:22:34.468Z,16.85
2022-10-23T10:25:28.931Z,17.02
2022-10-23T10:28:10.844Z,17.28
2022-10-23T10:30:56.484Z,17.41
2022-10-23T10:33:39.705Z,17.46
2022-10-23T10:36:31.434Z,17.47
2022-10-23T10:39:03.840Z,17.70
2022-10-23T10:41:55.847Z,17.83
2022-10-23T10:45:17.795Z,17.76
2022-10-23T10:48:08.803Z,17.71
2022-10-23T10:51:03.795Z,17.73
2022-10-23T10:54:04.202Z,17.69
2022-10-23T10:56:35.218Z,17.74
2022-10-23T10:59:16.202Z,17.81
2022-10-23T11:01:50.742Z,17.99
2022-10-23T11:04:39.361Z,18.15
2022-10-23T11:07:15.314Z,18.30
2022-10-23T11:09:43.214Z,18.28
2022-10-23T11:12:36.321Z,18.23
2022-10-23T11:15:03.570Z,18.31
2022-10-23T11:17:39.917Z,18.32
2022-10-23T11:20:36.401Z,18.19
2022-10-23T11:23:16.619Z,18.22
2022-10-23T11:25:49.616Z,18.46
2022-10-23T11:28:42.687Z,18.52
2022-10-23T11:31:39.103Z,18.59
2022-10-23T11:34:31.830Z,18.61
2022-10-23T11:37:01.575Z,18.37
2022-10-23T11:39:30.984Z,18.65
2022-10-23T11:42:05.326Z,18.69
2022-10-23T11:44:48.246Z,19.14
2022-10-23T11:47:39.607Z,19.09
2022-10-23T11:50:07.366Z,19.12
2022-10-23T11:52:50.314Z,19.32
2022-10-23T11:55:29.956Z,19.21
2022-10-23T11:58:12.273Z,19.34
2022-10-23T12:00:49.496Z,19.52
2022-10-23T12:03:25.860Z,19.68
2022-10-23T12:06:06.425Z,19.52
2022-10-23T12:08:40.742Z,19.49
2022-10-23T12:11:27.576Z,19.41
2022-10-23T12:13:55.110Z,19.49
2022-10-23T12:16:22.199Z,19.87
2022-10-23T12:18:53.872Z,19.67
2022-10-23T12:21:28.218Z,19.65
2022-10-23T12:24:13.759Z,19.60
2022-10-23T12:27:05.792Z,19.49
2022-10-23T12:30:04.961Z,19.32
2022-10-23T12:32:44.819Z,19.27
2022-10-23T12:35:18.284Z,19.59
2022-10-23T12:37:58.254Z,19.89
2022-10-23T12:40:30.068Z,19.85
2022-10-23T12:42:59.761Z,20.11
2022-10-23T12:45:40.250Z,19.82
2022-10-23T12:48:22.435Z,19.78
2022-10-23T12:50:51.779Z,19.70
2022-10-23T12:53:20.816Z,19.77
2022-10-23T12:58:35.157Z,19.86
2022-10-23T13:01:07.048Z,19.94
2022-10-23T13:03:34.848Z,19.97
2022-10-23T13:06:03.009Z,20.00
2022-10-23T13:08:38.891Z,20.02
2022-10-23T13:11:26.553Z,19.58
2022-10-23T13:13:56.059Z,19.60
2022-10-23T13:16:25.287Z,19.49
2022-10-23T13:18:54.252Z,19.84
2022-10-23T13:21:22.461Z,19.79
2022-10-23T13:23:50.600Z,19.78
2022-10-23T13:26:31.083Z,19.84
2022-10-23T13:28:59.418Z,20.57
2022-10-23T13:31:29.483Z,20.38
2022-10-23T13:33:59.420Z,20.10
2022-10-23T13:36:29.015Z,20.11
2022-10-23T13:39:02.394Z,20.70
2022-10-23T13:41:44.487Z,20.68
2022-10-23T13:44:13.652Z,21.56
2022-10-23T13:46:41.701Z,21.20
2022-10-23T13:49:08.820Z,20.47
2022-10-23T13:51:44.075Z,21.32
2022-10-23T13:54:30.624Z,22.16
2022-10-23T13:56:57.836Z,23.26
2022-10-23T13:59:24.971Z,22.64
2022-10-23T14:01:52.497Z,23.43
2022-10-23T14:04:20.325Z,23.53
2022-10-23T14:06:47.920Z,22.36
2022-10-23T14:09:17.746Z,21.51
2022-10-23T14:11:45.292Z,21.03
2022-10-23T14:14:12.581Z,20.45
2022-10-23T14:16:40.911Z,20.06
2022-10-23T14:19:08.629Z,19.55
2022-10-23T14:21:35.939Z,19.54
2022-10-23T14:24:02.979Z,19.81
2022-10-23T14:26:30.379Z,20.40
2022-10-23T14:29:00.679Z,20.24
2022-10-23T14:31:31.603Z,20.15
2022-10-23T14:34:00.612Z,19.99
2022-10-23T14:36:38.287Z,19.88
2022-10-23T14:39:15.958Z,19.63
2022-10-23T14:41:43.072Z,19.64
2022-10-23T14:44:10.177Z,19.55
2022-10-23T14:46:38.245Z,19.52
2022-10-23T14:49:06.225Z,19.41
2022-10-23T14:51:33.624Z,19.34
2022-10-23T14:54:03.220Z,19.87
2022-10-23T14:56:32.755Z,19.53
2022-10-23T14:59:03.168Z,19.35
2022-10-23T15:01:43.687Z,19.31
2022-10-23T15:04:15.061Z,18.92
2022-10-23T15:06:43.347Z,19.01
2022-10-23T15:09:10.441Z,18.82
2022-10-23T15:11:37.546Z,18.72
2022-10-23T15:14:04.733Z,18.50
2022-10-23T15:16:32.296Z,18.38
2022-10-23T15:18:59.384Z,18.15
2022-10-23T15:21:26.426Z,17.73
2022-10-23T15:23:54.729Z,17.98
2022-10-23T15:26:23.110Z,17.73
2022-10-23T15:29:00.449Z,17.71
2022-10-23T15:31:30.625Z,17.71
2022-10-23T15:33:58.259Z,17.85
2022-10-23T15:36:25.915Z,17.74
2022-10-23T15:38:52.992Z,17.88
2022-10-23T15:41:46.557Z,17.78
2022-10-23T15:44:16.417Z,17.68
2022-10-23T15:46:43.988Z,17.52
2022-10-23T15:49:11.794Z,17.58
2022-10-23T15:51:39.547Z,17.55
2022-10-23T15:54:08.861Z,17.49
2022-10-23T15:56:35.957Z,17.37
2022-10-23T15:59:03.336Z,17.40
2022-10-23T16:01:30.594Z,17.37
2022-10-23T16:03:57.722Z,17.33
2022-10-23T16:06:24.891Z,17.32
2022-10-23T16:11:27.098Z,17.18
2022-10-23T16:13:55.464Z,17.18
2022-10-23T16:16:22.745Z,17.14
2022-10-23T16:18:50.070Z,17.10
2022-10-23T16:21:25.982Z,17.13
2022-10-23T16:23:56.689Z,17.00
2022-10-23T16:26:24.403Z,17.17
2022-10-23T16:28:56.216Z,17.01
2022-10-23T16:31:25.233Z,17.04
2022-10-23T16:33:53.664Z,16.96
2022-10-23T16:36:21.403Z,16.99
2022-10-23T16:39:08.809Z,16.89
2022-10-23T16:41:54.532Z,16.81
2022-10-23T16:44:24.604Z,16.82
2022-10-23T16:46:57.563Z,16.72
2022-10-23T16:49:24.800Z,16.77
2022-10-23T16:51:51.844Z,16.78
2022-10-23T16:54:19.113Z,16.52
2022-10-23T16:56:47.198Z,16.55
2022-10-23T16:59:14.306Z,16.44
2022-10-23T17:01:41.433Z,16.35
2022-10-23T17:04:08.715Z,16.23
2022-10-23T17:06:36.599Z,16.54
2022-10-23T17:09:04.823Z,16.67
2022-10-23T17:11:35.545Z,16.59
2022-10-23T17:14:08.387Z,16.62
2022-10-23T17:17:04.066Z,16.74
2022-10-23T17:19:47.099Z,16.67
2022-10-23T17:22:14.932Z,16.60
2022-10-23T17:24:44.201Z,16.43
2022-10-23T17:27:13.446Z,16.44
2022-10-23T17:29:40.776Z,16.26
2022-10-23T17:32:07.962Z,16.12
2022-10-23T17:34:35.141Z,15.88
2022-10-23T17:37:02.241Z,15.95
2022-10-23T17:39:29.873Z,15.98
2022-10-23T17:41:57.109Z,15.89
2022-10-23T17:44:24.217Z,15.66
2022-10-23T17:46:53.684Z,15.52
2022-10-23T17:49:22.060Z,15.50
2022-10-23T17:51:52.680Z,15.35
2022-10-23T17:54:19.781Z,15.35
2022-10-23T17:56:46.854Z,15.37
2022-10-23T17:59:17.326Z,15.49
2022-10-23T18:01:46.785Z,15.51
2022-10-23T18:04:14.704Z,15.30
2022-10-23T18:06:44.955Z,15.33
2022-10-23T18:09:12.487Z,15.31
2022-10-23T18:11:46.853Z,15.21
2022-10-23T18:14:16.775Z,15.24
2022-10-23T18:16:45.404Z,15.21
2022-10-23T18:19:13.017Z,15.26
2022-10-23T18:21:40.194Z,15.22
2022-10-23T18:24:07.706Z,15.18
2022-10-23T18:26:37.542Z,15.29
2022-10-23T18:29:07.607Z,15.28
2022-10-23T18:31:44.602Z,15.41
2022-10-23T18:34:18.544Z,15.42
2022-10-23T18:36:45.906Z,15.41
2022-10-23T18:39:16.034Z,15.52
2022-10-23T18:41:45.037Z,15.53
2022-10-23T18:44:17.312Z,15.56
2022-10-23T18:46:48.236Z,15.58
2022-10-23T18:49:18.058Z,15.42
2022-10-23T18:51:45.653Z,15.33
2022-10-23T18:54:14.759Z,15.31
2022-10-23T18:56:42.453Z,15.16
2022-10-23T18:59:20.489Z,15.16
2022-10-23T19:01:48.306Z,15.16
2022-10-23T19:04:17.746Z,15.03
2022-10-23T19:06:46.610Z,14.99
2022-10-23T19:09:13.890Z,14.86
2022-10-23T19:11:42.537Z,14.87
2022-10-23T19:14:09.847Z,14.77
2022-10-23T19:16:59.047Z,14.84
2022-10-23T19:19:30.762Z,14.87
2022-10-23T19:21:58.813Z,14.79
2022-10-23T19:24:31.956Z,14.75
2022-10-23T19:27:01.383Z,14.64
2022-10-23T19:29:29.232Z,14.61
2022-10-23T19:31:56.305Z,14.60
2022-10-23T19:34:25.025Z,14.48
2022-10-23T19:36:53.600Z,14.48
2022-10-23T19:39:20.743Z,14.49
2022-10-23T19:41:48.124Z,14.41
2022-10-23T19:44:15.222Z,14.49
2022-10-23T19:46:42.320Z,14.54
2022-10-23T19:49:10.268Z,14.56
2022-10-23T19:51:37.996Z,14.39
2022-10-23T19:54:05.716Z,14.47
2022-10-23T19:56:32.802Z,14.49
2022-10-23T19:59:00.136Z,14.52
2022-10-23T20:01:27.469Z,14.43
2022-10-23T20:03:57.409Z,14.45
2022-10-23T20:06:27.346Z,14.57
2022-10-23T20:08:54.914Z,14.53
2022-10-23T20:11:28.138Z,14.55
2022-10-23T20:13:56.255Z,14.53
2022-10-23T20:16:29.590Z,14.65
2022-10-23T20:18:57.215Z,14.63
2022-10-23T20:21:25.425Z,14.64
2022-10-23T20:23:52.697Z,14.59
2022-10-23T20:26:21.952Z,14.51
2022-10-23T20:28:53.664Z,14.41
2022-10-23T20:31:25.495Z,14.25
2022-10-23T20:33:53.640Z,14.28
2022-10-23T20:36:26.853Z,14.27
2022-10-23T20:38:55.013Z,14.25
2022-10-23T20:41:22.924Z,14.20
2022-10-23T20:43:50.080Z,14.12
2022-10-23T20:46:17.445Z,14.13
2022-10-23T20:48:45.184Z,14.24
2022-10-23T20:51:15.171Z,14.36
2022-10-23T20:53:43.028Z,14.37
2022-10-23T20:56:14.109Z,14.46
2022-10-23T20:58:41.249Z,14.28
2022-10-23T21:01:10.834Z,14.24
2022-10-23T21:03:38.676Z,14.18
2022-10-23T21:06:14.531Z,14.33
2022-10-23T21:08:42.080Z,14.27
2022-10-23T21:11:14.578Z,14.20
2022-10-23T21:13:43.576Z,14.29
2022-10-23T21:16:18.477Z,14.24
2022-10-23T21:18:47.035Z,14.25
2022-10-23T21:21:19.102Z,14.16
2022-10-23T21:23:47.642Z,14.13
2022-10-23T21:26:18.383Z,14.15
2022-10-23T21:28:55.664Z,14.12
2022-10-23T21:31:28.341Z,14.10
2022-10-23T21:33:55.448Z,14.09
2022-10-23T21:36:24.081Z,14.06
2022-10-23T21:38:54.099Z,14.09
2022-10-23T21:41:24.245Z,14.15
2022-10-23T21:44:03.357Z,14.21
2022-10-23T21:46:32.007Z,14.24
2022-10-23T21:48:59.799Z,14.18
2022-10-23T21:51:29.372Z,14.13
2022-10-23T21:53:57.144Z,14.07
2022-10-23T21:56:33.873Z,14.18
2022-10-23T21:59:02.552Z,14.11
2022-10-23T22:01:30.022Z,14.03
2022-10-23T22:03:57.780Z,14.10
2022-10-23T22:06:27.535Z,13.99
2022-10-23T22:08:56.989Z,14.09
2022-10-23T22:11:23.914Z,13.98
2022-10-23T22:13:51.355Z,13.96
2022-10-23T22:16:19.372Z,14.03
2022-10-23T22:18:47.259Z,14.06
2022-10-23T22:21:17.215Z,14.11
2022-10-23T22:23:44.618Z,14.04
2022-10-23T22:26:31.822Z,14.13
2022-10-23T22:29:01.473Z,14.12
2022-10-23T22:31:31.496Z,14.01
2022-10-23T22:33:59.525Z,14.14
2022-10-23T22:36:27.046Z,14.13
2022-10-23T22:38:55.699Z,14.07
2022-10-23T22:41:23.793Z,14.18
2022-10-23T22:43:56.089Z,14.16
2022-10-23T22:46:24.233Z,14.10
2022-10-23T22:48:51.419Z,14.17
2022-10-23T22:51:20.922Z,14.14
2022-10-23T22:53:48.037Z,14.09
2022-10-23T22:56:17.457Z,14.09
2022-10-23T22:58:44.745Z,14.11
2022-10-23T23:01:15.908Z,14.19
2022-10-23T23:03:43.714Z,14.22
2022-10-23T23:06:11.174Z,14.09
2022-10-23T23:08:39.615Z,14.00
2022-10-23T23:11:08.733Z,14.03
2022-10-23T23:13:35.789Z,14.03
2022-10-23T23:16:03.882Z,14.02
2022-10-23T23:18:31.415Z,14.07
2022-10-23T23:21:02.867Z,14.20
2022-10-23T23:23:30.613Z,14.17
2022-10-23T23:25:58.079Z,14.23
2022-10-23T23:28:25.168Z,14.14
2022-10-23T23:31:06.196Z,14.14
2022-10-23T23:33:33.518Z,14.02
2022-10-23T23:36:00.613Z,13.99
2022-10-23T23:38:27.766Z,14.02
2022-10-23T23:40:54.872Z,13.85
2022-10-23T23:43:22.015Z,13.89
2022-10-23T23:45:49.073Z,13.84
2022-10-23T23:48:16.166Z,13.73
2022-10-23T23:50:43.282Z,13.75
2022-10-23T23:53:10.633Z,13.83
2022-10-23T23:55:37.780Z,13.78
2022-10-23T23:58:04.999Z,13.83
